KMSN/MSN METAR and TAF weather

Enter ICAO airport designator
Station Type Date Time Source
KMSN METAR 2021/03/08 11:53 UTC NOAA

KMSN 081153Z VRB03KT 10SM FEW250 06/M01 A3017 RMK AO2 SLP223 4/003 T00561006 10067 20056 55000 $


Station Type Date Time Source
KMSN Decoded METAR 2021/03/08 11:53 UTC NOAA

MADISON DANE COUNTY RGNL, WI, United States (KMSN) 43-08N 89-21W 261M
Mar 08, 2021 - 06:53 AM EST / 2021.03.08 1153 UTC
Wind: Variable at 3 MPH (3 KT):0
Visibility: 10 mile(s):0
Sky conditions: mostly clear
Weather: 3 inches of snow on ground
Temperature: 42.1 F (5.6 C)
Dew Point: 30.9 F (-0.6 C)
Relative Humidity: 64%
Pressure (altimeter): 30.17 in. Hg (1021 hPa)
Pressure tendency: 0.00 inches (0.0 hPa) lower than three hours ago
ob: KMSN 081153Z VRB03KT 10SM FEW250 06/M01 A3017 RMK AO2 SLP223 4/003 T00561006 10067 20056 55000
cycle: 12

Station Type Date Time Source
KMSN TAF 2021/03/08 12:33 UTC NOAA

TAF KMSN 081130Z 0812/0912 22006KT P6SM FEW250
FM081600 27007KT P6SM SKC
FM090000 00000KT P6SM SKC
FM090900 00000KT 3SM BR FEW009

Example: see airport list